createdAt,value
2023-02-22T00:02:28.449Z,100326.96
2023-02-22T00:06:31.308Z,100325.77
2023-02-22T00:10:33.942Z,100330.61
2023-02-22T00:14:35.678Z,100332.84
2023-02-22T00:18:37.453Z,100333.30
2023-02-22T00:22:40.742Z,100334.34
2023-02-22T00:26:42.150Z,100339.65
2023-02-22T00:30:44.172Z,100336.92
2023-02-22T00:34:45.588Z,100337.39
2023-02-22T00:38:47.024Z,100336.14
2023-02-22T00:42:49.275Z,100334.95
2023-02-22T00:46:50.653Z,100336.20
2023-02-22T00:50:54.478Z,100338.11
2023-02-22T00:54:57.381Z,100333.23
2023-02-22T00:59:00.269Z,100329.30
2023-02-22T01:03:01.766Z,100329.20
2023-02-22T01:07:03.765Z,100329.95
2023-02-22T01:11:05.473Z,100334.66
2023-02-22T01:15:11.713Z,100339.44
2023-02-22T01:19:13.216Z,100340.64
2023-02-22T01:23:16.646Z,100341.23
2023-02-22T01:27:18.184Z,100341.52
2023-02-22T01:31:20.069Z,100335.28
2023-02-22T01:35:27.091Z,100331.36
2023-02-22T01:39:28.558Z,100337.45
2023-02-22T01:43:32.133Z,100344.14
2023-02-22T01:47:33.817Z,100334.73
2023-02-22T01:51:43.525Z,100335.30
2023-02-22T01:55:46.722Z,100338.56
2023-02-22T01:59:52.270Z,100329.14
2023-02-22T02:03:57.545Z,100326.58
2023-02-22T02:08:05.001Z,100324.69
2023-02-22T02:12:10.349Z,100331.09
2023-02-22T02:16:12.044Z,100336.18
2023-02-22T02:20:23.257Z,100327.44
2023-02-22T02:24:33.622Z,100323.02
2023-02-22T02:28:50.467Z,100324.35
2023-02-22T02:32:55.323Z,100323.73
2023-02-22T02:37:18.629Z,100320.02
2023-02-22T02:41:41.495Z,100325.53
2023-02-22T02:46:02.134Z,100324.61
2023-02-22T02:50:12.742Z,100317.61
2023-02-22T02:54:15.301Z,100321.07
2023-02-22T02:58:20.493Z,100321.23
2023-02-22T03:02:38.923Z,100320.71
2023-02-22T03:06:58.244Z,100323.81
2023-02-22T03:11:17.785Z,100323.24
2023-02-22T03:15:25.278Z,100325.83
2023-02-22T03:19:34.099Z,100327.45
2023-02-22T03:23:47.710Z,100324.21
2023-02-22T03:27:54.099Z,100321.84
2023-02-22T03:32:00.611Z,100325.61
2023-02-22T03:36:28.900Z,100326.14
2023-02-22T03:40:35.937Z,100320.33
2023-02-22T03:44:39.793Z,100318.50
2023-02-22T03:48:53.731Z,100323.45
2023-02-22T03:52:58.499Z,100328.45
2023-02-22T03:57:22.112Z,100331.00
2023-02-22T04:01:23.677Z,100330.36
2023-02-22T04:11:00.807Z,100328.79
2023-02-22T04:15:04.698Z,100330.40
2023-02-22T04:19:06.599Z,100331.11
2023-02-22T04:23:08.311Z,100331.72
2023-02-22T04:27:11.429Z,100330.92
2023-02-22T04:31:13.412Z,100328.01
2023-02-22T04:35:15.075Z,100325.90
2023-02-22T04:39:16.842Z,100319.50
2023-02-22T04:43:18.940Z,100321.38
2023-02-22T04:47:20.593Z,100322.23
2023-02-22T04:51:22.076Z,100325.54
2023-02-22T04:55:24.076Z,100323.40
2023-02-22T04:59:25.898Z,100320.35
2023-02-22T05:03:27.855Z,100320.04
2023-02-22T05:07:32.674Z,100315.31
2023-02-22T05:11:34.750Z,100311.39
2023-02-22T05:15:36.497Z,100313.27
2023-02-22T05:19:38.441Z,100310.39
2023-02-22T05:23:41.104Z,100310.70
2023-02-22T05:27:43.010Z,100306.65
2023-02-22T05:31:45.410Z,100309.42
2023-02-22T05:35:47.929Z,100308.98
2023-02-22T05:39:55.372Z,100310.89
2023-02-22T05:43:58.641Z,100313.01
2023-02-22T05:48:00.421Z,100313.17
2023-02-22T05:52:02.166Z,100314.04
2023-02-22T05:56:04.286Z,100318.60
2023-02-22T06:00:08.180Z,100322.02
2023-02-22T06:04:09.946Z,100321.64
2023-02-22T06:08:11.746Z,100324.61
2023-02-22T06:12:13.491Z,100330.55
2023-02-22T06:16:15.177Z,100336.30
2023-02-22T06:20:19.989Z,100337.97
2023-02-22T06:24:22.625Z,100337.48
2023-02-22T06:28:25.710Z,100341.75
2023-02-22T06:32:32.815Z,100350.55
2023-02-22T06:36:35.737Z,100350.80
2023-02-22T06:40:38.288Z,100350.92
2023-02-22T06:44:40.068Z,100349.04
2023-02-22T06:48:42.540Z,100349.71
2023-02-22T06:52:44.423Z,100353.34
2023-02-22T06:56:46.571Z,100353.75
2023-02-22T07:00:48.913Z,100364.52
2023-02-22T07:04:50.912Z,100372.98
2023-02-22T07:08:54.129Z,100376.33
2023-02-22T07:12:56.247Z,100378.36
2023-02-22T07:16:59.072Z,100383.48
2023-02-22T07:21:00.775Z,100388.19
2023-02-22T07:25:09.531Z,100391.46
2023-02-22T07:29:11.393Z,100390.95
2023-02-22T07:33:13.535Z,100391.66
2023-02-22T07:37:15.228Z,100395.04
2023-02-22T07:41:17.285Z,100395.16
2023-02-22T07:45:19.884Z,100396.39
2023-02-22T07:49:21.627Z,100402.05
2023-02-22T07:53:29.468Z,100395.83
2023-02-22T07:57:31.274Z,100394.58
2023-02-22T08:01:33.194Z,100396.02
2023-02-22T08:05:38.151Z,100396.98
2023-02-22T08:09:40.161Z,100399.14
2023-02-22T08:13:42.757Z,100395.34
2023-02-22T08:17:44.547Z,100393.23
2023-02-22T08:21:46.804Z,100395.95
2023-02-22T08:25:48.641Z,100396.17
2023-02-22T08:29:50.775Z,100394.65
2023-02-22T08:33:53.241Z,100394.11
2023-02-22T08:38:01.937Z,100393.59
2023-02-22T08:42:03.939Z,100383.78
2023-02-22T08:46:05.715Z,100382.98
2023-02-22T08:50:10.046Z,100385.75
2023-02-22T08:54:12.072Z,100382.98
2023-02-22T08:58:14.381Z,100380.52
2023-02-22T09:02:18.576Z,100374.55
2023-02-22T09:06:20.423Z,100373.88
2023-02-22T09:10:26.438Z,100370.38
2023-02-22T09:14:28.354Z,100370.05
2023-02-22T09:18:42.287Z,100372.15
2023-02-22T09:22:46.618Z,100374.02
2023-02-22T09:26:53.587Z,100377.45
2023-02-22T09:30:56.470Z,100382.04
2023-02-22T09:34:58.295Z,100380.35
2023-02-22T09:39:00.401Z,100378.63
2023-02-22T09:43:30.578Z,100379.67
2023-02-22T09:47:41.758Z,100374.01
2023-02-22T09:51:49.996Z,100375.21
2023-02-22T09:55:52.857Z,100379.52
2023-02-22T10:00:13.006Z,100375.36
2023-02-22T10:04:36.256Z,100374.16
2023-02-22T10:08:38.526Z,100367.69
2023-02-22T10:12:59.386Z,100369.60
2023-02-22T10:17:23.442Z,100373.42
2023-02-22T10:21:53.013Z,100372.44
2023-02-22T10:26:20.228Z,100368.66
2023-02-22T10:30:25.604Z,100370.16
2023-02-22T10:34:35.600Z,100370.68
2023-02-22T10:38:38.657Z,100367.63
2023-02-22T10:42:40.421Z,100365.98
2023-02-22T10:46:42.967Z,100364.25
2023-02-22T10:50:46.046Z,100365.40
2023-02-22T10:54:51.322Z,100367.80
2023-02-22T10:59:06.830Z,100365.73
2023-02-22T11:03:20.333Z,100362.45
2023-02-22T11:07:31.483Z,100361.61
2023-02-22T11:11:33.486Z,100358.77
2023-02-22T11:15:35.506Z,100356.55
2023-02-22T11:19:38.567Z,100354.45
2023-02-22T11:23:44.818Z,100347.27
2023-02-22T11:27:47.036Z,100346.28
2023-02-22T11:31:50.088Z,100342.73
2023-02-22T11:36:08.746Z,100333.23
2023-02-22T11:40:22.087Z,100329.48
2023-02-22T11:44:27.114Z,100327.95
2023-02-22T11:48:35.989Z,100328.57
2023-02-22T11:52:49.158Z,100329.14
2023-02-22T11:56:59.716Z,100327.85
2023-02-22T12:01:30.781Z,100328.52
2023-02-22T12:05:44.648Z,100327.91
2023-02-22T12:10:08.612Z,100328.11
2023-02-22T12:14:22.790Z,100326.92
2023-02-22T12:18:35.451Z,100323.20
2023-02-22T12:22:46.992Z,100323.54
2023-02-22T12:27:00.549Z,100321.67
2023-02-22T12:31:14.072Z,100318.87
2023-02-22T12:35:23.008Z,100315.02
2023-02-22T12:39:53.592Z,100315.64
2023-02-22T12:44:10.007Z,100311.94
2023-02-22T12:48:32.733Z,100311.64
2023-02-22T12:52:55.495Z,100312.08
2023-02-22T12:57:21.588Z,100312.33
2023-02-22T13:01:29.527Z,100306.64
2023-02-22T13:05:38.600Z,100306.52
2023-02-22T13:09:59.131Z,100306.04
2023-02-22T13:14:07.427Z,100302.65
2023-02-22T13:18:17.595Z,100303.13
2023-02-22T13:22:46.802Z,100303.52
2023-02-22T13:27:06.091Z,100301.37
2023-02-22T13:31:15.199Z,100301.79
2023-02-22T13:35:29.168Z,100300.32
2023-02-22T13:40:06.040Z,100298.55
2023-02-22T13:44:41.648Z,100296.91
2023-02-22T13:48:54.427Z,100294.78
2023-02-22T13:52:58.593Z,100289.16
2023-02-22T13:57:02.440Z,100286.92
2023-02-22T14:01:03.899Z,100287.24
2023-02-22T14:05:34.502Z,100289.84
2023-02-22T14:09:50.390Z,100288.06
2023-02-22T14:13:53.113Z,100284.77
2023-02-22T14:18:00.382Z,100284.14
2023-02-22T14:22:05.213Z,100288.79
2023-02-22T14:26:26.894Z,100289.95
2023-02-22T14:30:44.048Z,100290.88
2023-02-22T15:19:03.327Z,100283.38
2023-02-22T15:23:05.425Z,100280.70
2023-02-22T15:27:19.143Z,100283.98
2023-02-22T15:31:34.305Z,100277.53
2023-02-22T15:35:37.219Z,100277.45
2023-02-22T15:39:43.373Z,100279.16
2023-02-22T15:43:45.415Z,100276.63
2023-02-22T15:47:53.858Z,100275.58
2023-02-22T15:52:09.547Z,100275.29
2023-02-22T15:56:25.330Z,100274.48
2023-02-22T16:00:35.566Z,100273.30
2023-02-22T16:09:17.661Z,100284.71
2023-02-22T16:45:36.251Z,100302.26
2023-02-22T16:49:37.665Z,100304.23
2023-02-22T16:53:39.130Z,100305.49
2023-02-22T16:58:34.023Z,100310.31
2023-02-22T17:02:35.464Z,100310.45
2023-02-22T17:06:44.191Z,100315.38
2023-02-22T17:10:50.804Z,100320.76
2023-02-22T17:15:59.407Z,100318.23
2023-02-22T17:20:00.970Z,100318.52
2023-02-22T17:25:07.763Z,100321.52
2023-02-22T17:29:09.421Z,100321.40
2023-02-22T17:33:17.305Z,100319.95
2023-02-22T17:37:45.374Z,100323.01
2023-02-22T17:41:54.893Z,100323.25
2023-02-22T17:45:56.630Z,100322.61
2023-02-22T17:49:58.174Z,100318.97
2023-02-22T17:53:59.632Z,100321.34
2023-02-22T17:58:01.096Z,100321.17
2023-02-22T18:02:02.756Z,100316.66
2023-02-22T18:06:05.314Z,100312.73
2023-02-22T18:10:12.594Z,100309.77
2023-02-22T18:14:14.070Z,100310.51
2023-02-22T18:18:17.182Z,100308.92
2023-02-22T18:22:22.151Z,100310.59
2023-02-22T18:26:25.330Z,100312.49
2023-02-22T18:30:27.111Z,100311.60
2023-02-22T18:34:39.815Z,100312.06
2023-02-22T18:38:43.077Z,100314.36
2023-02-22T18:42:45.901Z,100309.80
2023-02-22T18:46:47.384Z,100312.81
2023-02-22T18:51:12.024Z,100312.84
2023-02-22T18:55:23.749Z,100310.66
2023-02-22T18:59:25.468Z,100307.06
2023-02-22T19:03:28.055Z,100306.81
2023-02-22T19:07:29.515Z,100302.69
2023-02-22T19:11:35.543Z,100304.48
2023-02-22T19:16:06.733Z,100306.84
2023-02-22T19:20:11.581Z,100303.67
2023-02-22T19:24:13.067Z,100302.02
2023-02-22T19:28:40.794Z,100300.30
2023-02-22T19:32:46.643Z,100306.06
2023-02-22T19:37:47.480Z,100303.20
2023-02-22T19:41:50.239Z,100308.55
2023-02-22T19:45:51.698Z,100306.08
2023-02-22T19:49:54.944Z,100308.04
2023-02-22T19:54:02.066Z,100306.04
2023-02-22T19:58:03.466Z,100304.11
2023-02-22T20:02:04.997Z,100309.38
2023-02-22T20:06:09.328Z,100305.64
2023-02-22T20:10:11.879Z,100305.73
2023-02-22T20:14:17.317Z,100303.02
2023-02-22T20:18:22.266Z,100303.33
2023-02-22T20:22:23.815Z,100303.06
2023-02-22T20:26:27.734Z,100308.70
2023-02-22T20:36:12.182Z,100304.23
2023-02-22T20:40:13.887Z,100301.42
2023-02-22T20:44:17.173Z,100303.96
2023-02-22T20:48:20.319Z,100303.63
2023-02-22T20:52:44.766Z,100301.61
2023-02-22T20:56:46.989Z,100302.52
2023-02-22T21:00:48.890Z,100298.20
2023-02-22T21:04:50.955Z,100294.13
2023-02-22T21:09:52.694Z,100295.73
2023-02-22T21:13:54.364Z,100297.27
2023-02-22T21:17:56.520Z,100294.94
2023-02-22T21:27:33.104Z,100290.23
2023-02-22T21:31:35.981Z,100289.84
2023-02-22T21:35:39.666Z,100287.27
2023-02-22T21:39:41.034Z,100280.80
2023-02-22T21:43:50.039Z,100280.09
2023-02-22T21:47:53.973Z,100275.63
2023-02-22T21:52:25.109Z,100272.55
2023-02-22T21:56:28.107Z,100272.49
2023-02-22T22:00:30.497Z,100267.98
2023-02-22T22:05:32.699Z,100268.10
2023-02-22T22:09:37.103Z,100263.59
2023-02-22T22:14:03.842Z,100262.98
2023-02-22T22:18:06.636Z,100264.80
2023-02-22T22:22:08.626Z,100258.31
2023-02-22T22:26:16.790Z,100251.08
2023-02-22T22:30:18.344Z,100249.58
2023-02-22T22:34:20.611Z,100242.03
2023-02-22T22:38:22.177Z,100236.48
2023-02-22T22:42:24.491Z,100231.29
2023-02-22T22:46:26.642Z,100229.44
2023-02-22T22:50:29.092Z,100234.55
2023-02-22T22:54:31.082Z,100225.90
2023-02-22T22:58:35.908Z,100227.45
2023-02-22T23:02:37.376Z,100228.40
2023-02-22T23:06:41.689Z,100226.17
2023-02-22T23:10:43.246Z,100225.90
2023-02-22T23:14:45.157Z,100222.83
2023-02-22T23:18:46.700Z,100218.41
2023-02-22T23:22:48.168Z,100218.13
2023-02-22T23:26:49.660Z,100214.73
2023-02-22T23:30:51.203Z,100214.73
2023-02-22T23:34:52.789Z,100213.23
2023-02-22T23:38:54.356Z,100213.08
2023-02-22T23:42:55.932Z,100210.13
2023-02-22T23:46:57.413Z,100207.81
2023-02-22T23:50:58.933Z,100206.61
2023-02-22T23:55:04.821Z,100206.83
2023-02-22T23:59:11.814Z,100200.56
